Time;durP1;ratioP1;P1;durP2;ratioP2;P2;SDS_P1;SDS_P2;PMS_P1;PMS_P2;Temp;Humidity;BMP_temperature;BMP_pressure;BME280_temperature;BME280_humidity;BME280_pressure;Samples;Min_cycle;Max_cycle;Signal;HPM_P1;HPM_P2
2022/04/28 00:02:12;;;;;;;10.18;8.43;;;7.20;99.90;;;;;;5041439;28;20029;-84
2022/04/28 00:04:38;;;;;;;8.45;7.40;;;7.30;99.90;;;;;;5040104;28;20025;-83
2022/04/28 00:07:04;;;;;;;11.07;7.93;;;7.30;99.90;;;;;;5041528;28;20021;-83
2022/04/28 00:09:30;;;;;;;9.75;8.32;;;7.20;99.90;;;;;;5038951;28;20033;-85
2022/04/28 00:11:56;;;;;;;9.13;7.53;;;7.20;99.90;;;;;;5042732;28;20056;-85
2022/04/28 00:14:22;;;;;;;7.95;6.53;;;7.20;99.90;;;;;;5039208;28;20031;-85
2022/04/28 00:16:47;;;;;;;8.68;6.88;;;7.20;99.90;;;;;;5038914;28;20030;-84
2022/04/28 00:19:13;;;;;;;9.43;7.30;;;7.20;99.90;;;;;;5039415;28;20024;-84
2022/04/28 00:21:39;;;;;;;8.70;6.80;;;7.20;99.90;;;;;;5039129;28;20036;-83
2022/04/28 00:24:05;;;;;;;10.07;7.57;;;7.20;99.90;;;;;;5037694;28;20081;-85
2022/04/28 00:26:31;;;;;;;12.63;9.25;;;7.20;99.90;;;;;;5037987;28;20053;-83
2022/04/28 00:28:57;;;;;;;10.75;8.90;;;7.20;99.90;;;;;;5038158;28;20052;-84
2022/04/28 00:31:22;;;;;;;10.38;8.35;;;7.10;99.90;;;;;;5038409;28;20021;-84
2022/04/28 00:33:48;;;;;;;11.20;9.07;;;7.10;99.90;;;;;;5037181;28;20029;-83
2022/04/28 00:36:15;;;;;;;10.55;8.93;;;7.10;99.90;;;;;;5038767;28;20022;-83
2022/04/28 00:38:44;;;;;;;12.75;10.00;;;7.00;99.90;;;;;;5038474;28;20029;-83
2022/04/28 00:41:11;;;;;;;11.77;9.63;;;7.00;99.90;;;;;;5037266;28;20332;-84
2022/04/28 00:44:10;;;;;;;12.82;10.23;;;7.00;99.90;;;;;;5037307;28;20174;-83
2022/04/28 00:46:36;;;;;;;10.32;8.38;;;7.00;99.90;;;;;;5035561;28;20041;-83
2022/04/28 00:51:47;;;;;;;12.82;10.35;;;7.00;99.90;;;;;;5043193;28;20035;-83
2022/04/28 00:54:14;;;;;;;13.45;10.18;;;6.90;99.90;;;;;;5043076;28;20026;-83
2022/04/28 00:56:40;;;;;;;12.02;9.63;;;6.90;99.90;;;;;;5031928;28;20026;-81
2022/04/28 00:59:11;;;;;;;11.52;9.35;;;6.90;99.90;;;;;;5031955;28;20042;-82
2022/04/28 01:01:40;;;;;;;11.80;8.73;;;6.80;99.90;;;;;;5029090;28;20037;-83
2022/04/28 01:04:09;;;;;;;12.98;9.95;;;6.80;99.90;;;;;;5021126;28;20026;-87
2022/04/28 01:06:39;;;;;;;11.45;9.45;;;6.80;99.90;;;;;;5017884;28;20034;-85
2022/04/28 01:09:08;;;;;;;11.13;8.40;;;6.80;99.90;;;;;;5018975;28;20034;-84
2022/04/28 01:11:34;;;;;;;11.85;9.18;;;6.80;99.90;;;;;;5033518;28;20407;-85
2022/04/28 01:14:00;;;;;;;11.77;8.77;;;6.80;99.90;;;;;;5017081;28;20022;-85
2022/04/28 01:16:26;;;;;;;12.05;9.20;;;6.70;99.90;;;;;;5018229;28;20657;-85
2022/04/28 01:18:51;;;;;;;10.32;8.25;;;6.70;99.90;;;;;;5017642;28;20045;-85
2022/04/28 01:21:20;;;;;;;10.77;8.25;;;6.60;99.90;;;;;;5019171;28;20073;-83
2022/04/28 01:23:45;;;;;;;11.98;9.45;;;6.70;99.90;;;;;;5020403;28;20032;-83
2022/04/28 01:26:14;;;;;;;13.90;10.65;;;6.60;99.90;;;;;;5037963;28;20053;-84
2022/04/28 01:28:55;;;;;;;13.25;10.32;;;6.60;99.90;;;;;;5037841;28;20018;-83
2022/04/28 01:31:25;;;;;;;12.25;10.07;;;6.60;99.90;;;;;;5036016;28;20034;-84
2022/04/28 01:33:53;;;;;;;13.98;10.93;;;6.60;99.90;;;;;;5020671;28;20552;-83
2022/04/28 01:36:25;;;;;;;14.10;9.32;;;6.60;99.90;;;;;;5027728;28;20046;-84
2022/04/28 01:38:53;;;;;;;14.00;10.95;;;6.60;99.90;;;;;;5036126;28;20032;-82
2022/04/28 01:41:23;;;;;;;12.75;9.77;;;6.50;99.90;;;;;;5019445;28;20056;-84
2022/04/28 01:44:03;;;;;;;10.88;8.80;;;6.50;99.90;;;;;;5037729;28;20040;-85
2022/04/28 01:46:45;;;;;;;11.10;8.88;;;6.50;99.90;;;;;;5004993;28;20496;-84
2022/04/28 01:49:16;;;;;;;10.60;9.18;;;6.40;99.90;;;;;;5050781;28;20057;-83
2022/04/28 01:57:36;;;;;;;8.75;6.90;;;6.30;99.90;;;;;;5040573;28;20385;-84
2022/04/28 02:00:14;;;;;;;8.25;6.78;;;6.30;99.90;;;;;;5034460;28;20036;-83
2022/04/28 02:02:51;;;;;;;8.88;7.45;;;6.30;99.90;;;;;;5036567;28;20029;-83
2022/04/28 02:05:27;;;;;;;11.10;8.38;;;6.30;99.90;;;;;;5035777;28;20033;-84
2022/04/28 02:08:09;;;;;;;10.38;8.05;;;6.30;99.90;;;;;;5035315;28;20025;-83
2022/04/28 02:10:35;;;;;;;10.48;8.00;;;6.30;99.90;;;;;;5036504;28;20037;-83
2022/04/28 02:13:01;;;;;;;9.98;8.15;;;6.30;99.90;;;;;;5036697;28;20026;-83
2022/04/28 02:15:55;;;;;;;9.35;8.10;;;6.20;99.90;;;;;;5035521;28;20026;-82
2022/04/28 02:18:24;;;;;;;10.82;8.05;;;6.20;99.90;;;;;;5036859;28;20402;-83
2022/04/28 02:21:36;;;;;;;10.45;8.35;;;6.20;99.90;;;;;;5035503;28;20025;-85
2022/04/28 02:24:23;;;;;;;11.33;9.10;;;6.20;99.90;;;;;;4987521;28;20034;-85
2022/04/28 02:26:49;;;;;;;11.85;9.82;;;6.10;99.90;;;;;;5020104;28;20037;-85
2022/04/28 02:29:16;;;;;;;13.73;10.43;;;6.10;99.90;;;;;;5039339;28;20030;-84
2022/04/28 02:31:44;;;;;;;12.27;9.48;;;6.00;99.90;;;;;;5044938;28;20035;-84
2022/04/28 02:34:14;;;;;;;13.35;9.18;;;5.90;99.90;;;;;;5042372;28;20028;-81
2022/04/28 02:36:43;;;;;;;12.60;9.50;;;5.90;99.90;;;;;;5041092;28;20087;-84
2022/04/28 02:39:17;;;;;;;11.70;8.98;;;5.80;99.90;;;;;;5041010;28;20063;-83
2022/04/28 02:41:45;;;;;;;12.02;9.10;;;5.80;99.90;;;;;;5040303;28;20116;-84
2022/04/28 02:44:16;;;;;;;11.98;9.07;;;5.80;99.90;;;;;;5040185;28;20036;-83
2022/04/28 02:46:45;;;;;;;11.55;9.43;;;5.70;99.90;;;;;;5040910;28;20385;-83
2022/04/28 02:49:15;;;;;;;14.32;9.95;;;5.80;99.90;;;;;;5040642;28;20017;-83
2022/04/28 02:51:42;;;;;;;10.45;8.45;;;5.80;99.90;;;;;;5041375;28;20029;-83
2022/04/28 02:54:09;;;;;;;11.82;8.88;;;5.80;99.90;;;;;;5038877;28;20025;-83
2022/04/28 02:56:35;;;;;;;11.02;8.35;;;5.80;99.90;;;;;;5040923;28;20037;-83
2022/04/28 02:59:24;;;;;;;10.77;8.15;;;5.80;99.90;;;;;;5040689;28;20045;-83
2022/04/28 03:01:52;;;;;;;12.35;8.82;;;5.70;99.90;;;;;;5040833;28;20107;-82
2022/04/28 03:04:19;;;;;;;12.80;9.00;;;5.80;99.90;;;;;;5023987;28;20536;-83
2022/04/28 03:12:47;;;;;;;11.35;7.80;;;5.80;99.90;;;;;;5040102;28;20106;-84
2022/04/28 03:15:14;;;;;;;9.10;7.07;;;5.80;99.90;;;;;;5044461;28;20038;-84
2022/04/28 03:17:40;;;;;;;9.63;7.15;;;5.80;99.90;;;;;;5043334;28;20101;-84
2022/04/28 03:20:06;;;;;;;9.88;7.25;;;5.80;99.90;;;;;;5048362;28;20025;-82
2022/04/28 03:22:35;;;;;;;8.75;6.95;;;5.80;99.90;;;;;;5041835;28;20030;-83
2022/04/28 03:25:04;;;;;;;9.77;7.45;;;5.80;99.90;;;;;;5048900;28;20049;-83
2022/04/28 03:27:32;;;;;;;8.40;7.20;;;5.80;99.90;;;;;;5052819;28;20117;-82
2022/04/28 03:29:58;;;;;;;9.23;7.40;;;5.80;99.90;;;;;;5044042;28;20119;-83
2022/04/28 03:32:24;;;;;;;10.65;7.40;;;5.80;99.90;;;;;;5041568;28;20044;-83
2022/04/28 03:34:50;;;;;;;10.02;7.45;;;5.70;99.90;;;;;;5037871;28;20108;-83
2022/04/28 03:37:15;;;;;;;11.98;8.45;;;5.70;99.90;;;;;;5048220;28;20453;-83
2022/04/28 03:39:41;;;;;;;11.23;8.45;;;5.70;99.90;;;;;;5042322;28;20424;-83
2022/04/28 03:42:07;;;;;;;10.40;7.65;;;5.60;99.90;;;;;;5044169;28;20026;-81
2022/04/28 03:44:37;;;;;;;12.50;8.48;;;5.60;99.90;;;;;;5042927;28;20022;-82
2022/04/28 03:47:03;;;;;;;9.63;7.97;;;5.50;99.90;;;;;;5039867;28;20053;-83
2022/04/28 03:49:29;;;;;;;9.40;7.25;;;5.50;99.90;;;;;;5037672;28;20454;-83
2022/04/28 03:51:55;;;;;;;7.85;6.60;;;5.40;99.90;;;;;;5039195;28;20041;-82
2022/04/28 03:54:21;;;;;;;10.00;6.93;;;5.40;99.90;;;;;;5033777;28;20074;-82
2022/04/28 03:56:47;;;;;;;9.43;7.28;;;5.40;99.90;;;;;;5043854;28;20036;-81
2022/04/28 03:59:13;;;;;;;11.75;9.35;;;5.40;99.90;;;;;;5058100;28;20036;-81
2022/04/28 04:01:39;;;;;;;10.52;7.60;;;5.40;99.90;;;;;;5048673;28;20033;-83
2022/04/28 04:04:05;;;;;;;11.60;8.60;;;5.50;99.90;;;;;;5042276;28;20039;-84
2022/04/28 04:06:31;;;;;;;10.73;8.00;;;5.50;99.90;;;;;;5036008;28;20021;-84
2022/04/28 04:08:57;;;;;;;10.00;7.38;;;5.50;99.90;;;;;;5036390;28;20053;-82
2022/04/28 04:11:23;;;;;;;10.77;8.38;;;5.50;99.90;;;;;;5037311;28;20049;-84
2022/04/28 04:13:49;;;;;;;10.05;8.23;;;5.50;99.90;;;;;;5039652;28;20021;-83
2022/04/28 04:16:15;;;;;;;13.13;8.77;;;5.50;99.90;;;;;;5040206;28;20367;-83
2022/04/28 04:18:40;;;;;;;9.88;8.15;;;5.50;99.90;;;;;;5038415;28;20021;-84
2022/04/28 04:21:07;;;;;;;11.38;8.82;;;5.60;99.90;;;;;;5039159;28;20363;-83
2022/04/28 04:23:33;;;;;;;11.35;8.60;;;5.50;99.90;;;;;;5037740;28;20034;-84
2022/04/28 04:25:58;;;;;;;11.15;8.13;;;5.50;99.90;;;;;;5037736;28;20120;-85
2022/04/28 04:28:24;;;;;;;11.05;8.35;;;5.60;99.90;;;;;;5037686;28;20043;-85
2022/04/28 04:33:36;;;;;;;10.20;7.97;;;5.60;99.90;;;;;;5039179;28;20033;-83
2022/04/28 04:36:03;;;;;;;11.02;8.55;;;5.70;99.90;;;;;;5039360;28;20014;-84
2022/04/28 04:38:29;;;;;;;12.60;9.02;;;5.70;99.90;;;;;;5036486;28;20021;-83
2022/04/28 04:40:54;;;;;;;11.98;8.88;;;5.80;99.90;;;;;;5039175;28;20052;-84
2022/04/28 04:43:20;;;;;;;12.10;8.65;;;5.80;99.90;;;;;;5054652;28;20025;-83
2022/04/28 04:45:46;;;;;;;11.07;8.57;;;5.90;99.90;;;;;;5050539;28;20025;-84
2022/04/28 04:48:12;;;;;;;11.75;8.77;;;5.90;99.90;;;;;;5046544;28;20038;-83
2022/04/28 04:50:39;;;;;;;12.93;9.68;;;5.90;99.90;;;;;;5045436;28;20025;-82
2022/04/28 04:53:05;;;;;;;13.27;9.70;;;5.90;99.90;;;;;;5043982;28;20033;-82
2022/04/28 04:55:36;;;;;;;14.30;10.65;;;6.00;99.90;;;;;;5044612;28;20022;-82
2022/04/28 04:58:03;;;;;;;15.45;10.70;;;6.10;99.90;;;;;;5047637;28;20013;-80
2022/04/28 05:00:29;;;;;;;11.77;9.18;;;6.10;99.90;;;;;;5049582;28;20022;-79
2022/04/28 05:02:54;;;;;;;14.80;9.60;;;6.20;99.90;;;;;;5049486;28;20044;-80
2022/04/28 05:05:20;;;;;;;12.90;9.70;;;6.30;99.90;;;;;;5052446;28;20021;-81
2022/04/28 05:07:46;;;;;;;10.68;8.55;;;6.40;99.90;;;;;;5054445;28;20030;-81
2022/04/28 05:10:12;;;;;;;13.43;9.07;;;6.50;99.90;;;;;;5053836;28;20029;-81
2022/04/28 05:12:37;;;;;;;16.42;11.48;;;6.60;99.90;;;;;;5049979;28;20052;-81
2022/04/28 05:15:04;;;;;;;18.13;11.00;;;6.70;99.90;;;;;;5050184;28;20036;-80
2022/04/28 05:17:42;;;;;;;13.77;9.93;;;6.70;99.90;;;;;;5049579;28;20026;-81
2022/04/28 05:20:08;;;;;;;16.55;11.02;;;6.80;99.90;;;;;;5049927;28;20451;-80
2022/04/28 05:22:35;;;;;;;12.75;9.05;;;6.90;99.90;;;;;;5050630;28;20089;-80
2022/04/28 05:25:00;;;;;;;13.60;9.40;;;7.00;99.90;;;;;;5048972;28;20041;-80
2022/04/28 05:27:30;;;;;;;11.27;9.00;;;7.10;99.90;;;;;;5046187;28;20029;-81
2022/04/28 05:29:56;;;;;;;10.70;7.85;;;7.20;99.90;;;;;;5040304;28;20068;-80
2022/04/28 05:32:26;;;;;;;11.32;8.90;;;7.30;99.90;;;;;;5036913;28;20044;-79
2022/04/28 05:34:53;;;;;;;12.52;8.90;;;7.50;99.90;;;;;;5020727;28;20028;-82
2022/04/28 05:37:29;;;;;;;14.32;10.52;;;7.60;99.90;;;;;;5034669;28;20026;-81
2022/04/28 05:39:56;;;;;;;13.13;10.00;;;7.70;99.90;;;;;;5013993;28;20081;-80
2022/04/28 05:46:00;;;;;;;16.58;12.68;;;7.80;99.90;;;;;;5034092;28;20592;-80
2022/04/28 05:48:26;;;;;;;17.38;12.25;;;7.90;99.90;;;;;;5023653;28;20044;-80
2022/04/28 05:50:52;;;;;;;17.17;12.68;;;7.90;99.90;;;;;;5040740;28;20045;-82
2022/04/28 05:53:26;;;;;;;18.27;14.45;;;8.00;99.90;;;;;;5039840;28;20029;-82
2022/04/28 05:55:52;;;;;;;20.25;14.18;;;8.00;99.90;;;;;;5035709;28;20025;-81
2022/04/28 05:58:17;;;;;;;18.85;13.65;;;8.10;99.90;;;;;;5019881;28;20030;-80
2022/04/28 06:00:43;;;;;;;18.13;13.35;;;8.10;99.90;;;;;;5020293;28;20032;-80
2022/04/28 06:03:09;;;;;;;15.43;12.82;;;8.20;99.90;;;;;;5022694;28;20029;-79
2022/04/28 06:05:34;;;;;;;13.23;10.85;;;8.40;99.90;;;;;;5022840;28;20049;-79
2022/04/28 06:08:00;;;;;;;13.90;11.55;;;8.60;99.90;;;;;;5024346;28;20144;-80
2022/04/28 06:10:26;;;;;;;13.43;10.15;;;8.80;99.90;;;;;;5036772;28;20029;-79
2022/04/28 06:12:52;;;;;;;11.65;8.93;;;9.00;99.90;;;;;;5044063;28;20060;-81
2022/04/28 06:15:17;;;;;;;10.57;8.38;;;11.00;99.90;;;;;;5041927;28;20044;-82
2022/04/28 06:17:43;;;;;;;9.05;6.95;;;14.90;92.80;;;;;;5041269;28;20045;-81
2022/04/28 06:20:09;;;;;;;7.75;6.28;;;18.30;80.10;;;;;;5043734;28;20026;-80
2022/04/28 06:22:35;;;;;;;9.10;5.22;;;20.90;64.80;;;;;;5047901;28;20045;-80
2022/04/28 06:25:01;;;;;;;4.72;4.07;;;22.60;58.20;;;;;;5049026;28;20029;-82
2022/04/28 06:27:30;;;;;;;4.32;3.92;;;23.80;54.50;;;;;;5048344;28;20021;-81
2022/04/28 06:29:56;;;;;;;8.35;6.50;;;24.80;50.20;;;;;;5041566;28;20033;-80
2022/04/28 06:32:22;;;;;;;8.80;5.72;;;24.70;47.70;;;;;;5042504;28;20032;-80
2022/04/28 06:34:48;;;;;;;4.22;3.78;;;24.80;47.10;;;;;;5042133;28;20467;-81
2022/04/28 06:37:17;;;;;;;5.07;4.57;;;25.40;46.70;;;;;;5040558;28;20020;-80
2022/04/28 06:39:43;;;;;;;4.68;4.07;;;25.90;44.90;;;;;;5039253;28;20100;-80
2022/04/28 06:42:09;;;;;;;3.30;3.00;;;26.20;44.30;;;;;;5039142;28;20068;-81
2022/04/28 06:44:36;;;;;;;4.60;3.65;;;26.50;43.90;;;;;;5039074;28;20030;-80
2022/04/28 06:47:05;;;;;;;2.92;2.72;;;26.60;42.80;;;;;;5040814;28;20056;-81
2022/04/28 06:49:33;;;;;;;3.20;3.00;;;26.50;42.20;;;;;;5038801;28;20079;-81
2022/04/28 06:51:59;;;;;;;3.38;3.05;;;25.60;42.30;;;;;;5025646;28;20033;-81
2022/04/28 06:54:36;;;;;;;11.02;7.25;;;23.00;44.00;;;;;;5051775;28;20037;-79
2022/04/28 06:57:03;;;;;;;6.60;5.35;;;19.20;49.30;;;;;;5048153;28;20029;-80
2022/04/28 06:59:28;;;;;;;8.05;7.25;;;16.40;56.10;;;;;;5039237;28;20021;-79
2022/04/28 07:01:55;;;;;;;9.77;7.80;;;14.70;61.90;;;;;;5057119;28;20048;-79
2022/04/28 07:04:21;;;;;;;9.85;7.22;;;13.40;67.00;;;;;;5042774;28;20040;-80
2022/04/28 07:06:46;;;;;;;10.60;7.53;;;12.70;71.00;;;;;;5039630;28;20040;-80
2022/04/28 07:09:12;;;;;;;8.52;7.13;;;12.30;73.90;;;;;;5039963;28;20057;-80
2022/04/28 07:11:38;;;;;;;9.98;7.13;;;12.00;75.70;;;;;;5045353;28;20052;-81
2022/04/28 07:14:04;;;;;;;9.20;8.25;;;11.70;77.40;;;;;;5044057;28;20022;-80
2022/04/28 07:16:29;;;;;;;9.82;8.00;;;11.60;78.90;;;;;;5058075;28;20335;-81
2022/04/28 07:18:55;;;;;;;11.07;8.57;;;11.40;80.30;;;;;;5044581;28;20037;-82
2022/04/28 07:21:21;;;;;;;8.48;6.93;;;11.40;81.10;;;;;;5044648;28;20029;-80
2022/04/28 07:23:46;;;;;;;8.98;7.75;;;11.30;81.60;;;;;;5044529;28;20044;-80
2022/04/28 07:26:12;;;;;;;14.45;9.82;;;11.30;82.10;;;;;;5043661;28;20025;-80
2022/04/28 07:28:38;;;;;;;8.45;7.15;;;11.30;82.40;;;;;;5043125;28;20025;-80
2022/04/28 07:31:04;;;;;;;11.38;7.05;;;11.40;83.20;;;;;;5044609;28;20033;-80
2022/04/28 07:33:30;;;;;;;9.75;7.10;;;11.50;83.40;;;;;;5051337;28;20060;-80
2022/04/28 07:35:55;;;;;;;11.45;7.93;;;11.60;82.60;;;;;;5053764;28;20026;-81
2022/04/28 07:38:22;;;;;;;9.00;6.28;;;11.80;81.80;;;;;;5055275;28;20113;-81
2022/04/28 07:40:50;;;;;;;8.65;6.78;;;12.00;81.30;;;;;;5055311;28;20021;-81
2022/04/28 07:43:16;;;;;;;9.82;7.57;;;12.10;80.10;;;;;;5041789;28;20387;-81
2022/04/28 07:45:41;;;;;;;9.70;6.68;;;12.20;79.90;;;;;;5044173;28;20032;-79
2022/04/28 07:48:08;;;;;;;13.45;8.07;;;12.40;79.80;;;;;;5046070;28;20036;-79
2022/04/28 07:50:34;;;;;;;11.73;7.88;;;12.40;79.80;;;;;;5049472;28;20045;-81
2022/04/28 07:53:00;;;;;;;10.00;7.35;;;12.60;79.50;;;;;;5046622;28;20512;-81
2022/04/28 07:55:26;;;;;;;12.40;7.32;;;12.60;79.10;;;;;;5048607;28;20022;-80
2022/04/28 07:57:51;;;;;;;10.48;7.05;;;12.60;78.70;;;;;;5048362;28;20036;-80
2022/04/28 08:00:21;;;;;;;10.75;6.40;;;12.60;78.40;;;;;;5048205;28;20025;-81
2022/04/28 08:02:47;;;;;;;6.90;5.35;;;12.70;77.00;;;;;;5044855;28;20018;-81
2022/04/28 08:05:13;;;;;;;10.13;5.90;;;12.90;76.90;;;;;;5044271;28;20029;-80
2022/04/28 08:07:38;;;;;;;9.35;6.55;;;13.00;75.40;;;;;;5044915;28;20030;-79
2022/04/28 08:10:05;;;;;;;7.65;6.85;;;13.10;75.30;;;;;;5043768;28;20029;-80
2022/04/28 08:12:30;;;;;;;7.78;6.10;;;13.20;74.60;;;;;;5045253;28;20026;-81
2022/04/28 08:14:56;;;;;;;6.95;6.15;;;13.30;73.40;;;;;;5044825;28;20025;-81
2022/04/28 08:17:22;;;;;;;8.50;5.78;;;13.40;72.80;;;;;;5043262;28;20075;-81
2022/04/28 08:19:47;;;;;;;8.00;5.70;;;13.60;72.30;;;;;;5042968;28;20017;-82
2022/04/28 08:22:13;;;;;;;9.52;6.28;;;13.80;71.90;;;;;;5045901;28;20029;-83
2022/04/28 08:24:39;;;;;;;9.52;6.25;;;13.80;70.20;;;;;;5047152;28;20036;-81
2022/04/28 08:27:05;;;;;;;8.05;5.63;;;13.80;69.40;;;;;;5039837;28;20043;-83
2022/04/28 08:29:31;;;;;;;9.32;6.55;;;13.80;70.30;;;;;;5041882;28;20505;-82
2022/04/28 08:31:56;;;;;;;8.45;5.53;;;13.90;70.00;;;;;;5041786;28;20090;-81
2022/04/28 08:34:22;;;;;;;8.32;4.80;;;14.20;69.30;;;;;;5041433;28;20029;-80
2022/04/28 08:36:50;;;;;;;6.88;4.70;;;14.30;68.60;;;;;;5041340;28;20027;-82
2022/04/28 08:39:16;;;;;;;5.90;4.88;;;14.50;68.50;;;;;;5042452;28;20025;-83
2022/04/28 08:41:47;;;;;;;7.00;5.60;;;14.80;66.90;;;;;;5040653;28;20021;-83
2022/04/28 08:44:24;;;;;;;5.70;5.10;;;14.90;65.30;;;;;;5042957;28;20029;-82
2022/04/28 08:46:53;;;;;;;10.38;6.32;;;14.90;64.70;;;;;;5044462;28;20017;-82
2022/04/28 08:49:28;;;;;;;6.80;5.20;;;14.90;65.00;;;;;;5043564;28;20093;-83
2022/04/28 08:51:55;;;;;;;9.15;5.97;;;15.00;65.50;;;;;;5043218;28;20112;-82
2022/04/28 08:54:23;;;;;;;7.85;5.80;;;15.10;62.20;;;;;;5042949;28;20550;-80
2022/04/28 08:56:51;;;;;;;9.10;5.47;;;14.90;61.90;;;;;;5040104;28;20036;-82
2022/04/28 08:59:21;;;;;;;8.63;4.50;;;15.00;61.90;;;;;;5040511;28;20013;-81
2022/04/28 09:01:47;;;;;;;6.68;4.97;;;15.00;58.60;;;;;;5040539;28;20025;-82
2022/04/28 09:04:13;;;;;;;6.18;4.18;;;15.10;57.40;;;;;;5042348;28;20033;-82
2022/04/28 09:06:41;;;;;;;6.53;4.25;;;15.10;57.20;;;;;;5043734;28;20024;-83
2022/04/28 09:09:11;;;;;;;4.43;3.28;;;15.30;55.10;;;;;;5040297;28;20021;-82
2022/04/28 09:12:08;;;;;;;5.88;4.32;;;15.30;54.60;;;;;;5042128;28;20040;-82
2022/04/28 09:14:48;;;;;;;4.32;3.42;;;15.50;53.00;;;;;;5042581;28;20041;-84
2022/04/28 09:17:14;;;;;;;5.60;4.38;;;15.30;53.40;;;;;;5041445;28;20588;-83
2022/04/28 09:19:54;;;;;;;6.22;4.20;;;15.10;53.40;;;;;;5042639;28;20029;-84
2022/04/28 09:22:32;;;;;;;4.75;4.07;;;14.90;53.40;;;;;;5044124;28;20048;-83
2022/04/28 09:25:01;;;;;;;4.95;3.70;;;14.70;53.40;;;;;;5042893;28;20528;-82
2022/04/28 09:27:33;;;;;;;3.28;2.97;;;14.80;53.40;;;;;;5045550;28;20474;-83
2022/04/28 09:30:03;;;;;;;5.57;3.53;;;15.30;53.20;;;;;;5045846;28;20105;-82
2022/04/28 09:32:29;;;;;;;4.50;3.63;;;15.90;51.60;;;;;;5044263;28;20053;-84
2022/04/28 09:35:11;;;;;;;4.78;3.60;;;16.40;49.60;;;;;;5010904;28;20494;-83
2022/04/28 09:37:40;;;;;;;6.57;3.83;;;16.80;49.50;;;;;;5041923;28;20097;-81
2022/04/28 09:42:51;;;;;;;4.22;3.70;;;17.40;47.30;;;;;;5045414;28;20090;-81
2022/04/28 09:45:22;;;;;;;4.65;3.47;;;17.50;45.80;;;;;;5045199;28;20033;-82
2022/04/28 09:47:57;;;;;;;4.50;2.90;;;17.60;46.10;;;;;;5045385;28;20028;-82
2022/04/28 09:50:24;;;;;;;7.18;5.15;;;18.20;46.00;;;;;;5051626;28;20017;-82
2022/04/28 09:52:54;;;;;;;7.18;4.72;;;18.30;46.40;;;;;;5055611;28;20033;-83
2022/04/28 09:55:23;;;;;;;7.53;6.78;;;17.90;48.10;;;;;;5052042;28;20022;-83
2022/04/28 09:57:49;;;;;;;6.00;5.40;;;18.00;51.10;;;;;;5044221;28;20032;-81
2022/04/28 10:00:15;;;;;;;9.52;6.40;;;17.90;51.90;;;;;;5044370;28;20049;-82
2022/04/28 10:02:41;;;;;;;11.07;5.82;;;17.80;51.20;;;;;;5043632;28;20025;-81
2022/04/28 10:05:08;;;;;;;10.82;4.30;;;17.50;52.20;;;;;;5045436;28;20032;-82
2022/04/28 10:07:36;;;;;;;6.70;5.65;;;17.10;53.60;;;;;;5045198;28;20044;-83
2022/04/28 10:10:03;;;;;;;6.30;4.75;;;17.00;52.50;;;;;;5044462;28;20017;-82
2022/04/28 10:12:29;;;;;;;4.90;4.30;;;17.20;51.10;;;;;;5044742;28;20406;-82
2022/04/28 10:14:55;;;;;;;8.02;5.72;;;17.50;51.00;;;;;;5044400;28;20030;-83
2022/04/28 10:17:28;;;;;;;5.50;4.97;;;17.80;49.40;;;;;;5044673;28;20025;-82
2022/04/28 10:19:58;;;;;;;5.38;4.70;;;17.90;49.20;;;;;;5043534;28;20032;-83
2022/04/28 10:22:31;;;;;;;9.52;4.88;;;17.70;48.70;;;;;;5045026;28;20040;-80
2022/04/28 10:33:15;;;;;;;7.13;4.40;;;17.30;48.70;;;;;;5024704;28;20056;-81
2022/04/28 10:35:54;;;;;;;4.32;3.90;;;16.90;48.90;;;;;;5029553;28;20023;-82
2022/04/28 10:38:20;;;;;;;4.53;3.63;;;16.70;48.70;;;;;;5047550;28;20041;-82
2022/04/28 10:41:05;;;;;;;6.00;4.38;;;16.60;47.50;;;;;;5028853;28;20380;-83
2022/04/28 10:43:33;;;;;;;5.75;4.70;;;16.60;48.20;;;;;;5027422;28;20030;-82
2022/04/28 10:46:28;;;;;;;4.45;4.05;;;16.70;47.70;;;;;;5030374;28;20045;-82
2022/04/28 10:48:59;;;;;;;5.22;4.30;;;16.60;48.20;;;;;;5024754;28;20081;-82
2022/04/28 10:51:27;;;;;;;7.18;4.97;;;16.50;47.50;;;;;;5028132;28;20033;-82
2022/04/28 10:54:11;;;;;;;6.03;3.95;;;16.20;47.50;;;;;;5049655;28;20025;-83
2022/04/28 10:56:40;;;;;;;7.28;4.18;;;16.50;48.20;;;;;;5040741;28;20577;-85
2022/04/28 11:01:54;;;;;;;4.43;3.80;;;17.30;46.90;;;;;;5047256;28;20021;-83
2022/04/28 11:04:22;;;;;;;8.13;4.97;;;17.70;46.00;;;;;;5045782;28;20109;-80
2022/04/28 11:07:09;;;;;;;11.23;4.68;;;17.80;45.10;;;;;;5045051;28;20029;-82
2022/04/28 11:09:43;;;;;;;6.85;3.80;;;17.80;44.60;;;;;;5045321;28;20022;-82
2022/04/28 11:12:16;;;;;;;3.97;3.00;;;17.50;44.20;;;;;;5044627;28;20022;-82
2022/04/28 11:15:13;;;;;;;4.18;3.78;;;17.10;45.00;;;;;;5044549;28;20037;-82
2022/04/28 11:17:49;;;;;;;11.20;3.78;;;17.30;44.10;;;;;;5044034;28;20025;-82
2022/04/28 11:20:19;;;;;;;6.05;3.65;;;17.50;42.80;;;;;;5046904;28;20025;-81
2022/04/28 11:22:47;;;;;;;5.65;3.70;;;17.20;43.30;;;;;;5048658;28;20092;-81
2022/04/28 11:25:14;;;;;;;5.55;3.45;;;16.70;44.20;;;;;;5044053;28;20025;-83
2022/04/28 11:27:41;;;;;;;5.70;3.45;;;16.90;45.10;;;;;;5041906;28;20029;-81
2022/04/28 11:30:11;;;;;;;4.45;3.90;;;17.50;42.70;;;;;;5035983;28;20030;-82
2022/04/28 11:32:52;;;;;;;5.25;3.38;;;17.90;41.60;;;;;;5057043;28;20057;-83
2022/04/28 11:35:22;;;;;;;3.40;3.13;;;17.90;42.30;;;;;;5058032;28;20022;-82
2022/04/28 11:37:54;;;;;;;3.33;2.45;;;17.90;42.60;;;;;;5054782;28;20026;-82
2022/04/28 11:40:22;;;;;;;3.20;2.67;;;18.20;42.20;;;;;;5048759;28;20026;-82
2022/04/28 11:42:56;;;;;;;2.40;2.20;;;18.70;41.60;;;;;;5063034;28;20033;-82
2022/04/28 11:45:22;;;;;;;5.25;3.70;;;19.30;41.20;;;;;;5030621;28;20021;-82
2022/04/28 11:47:49;;;;;;;6.10;3.28;;;19.40;39.30;;;;;;5048718;28;20061;-83
2022/04/28 11:50:21;;;;;;;6.28;3.67;;;19.00;39.60;;;;;;5056249;28;20021;-81
2022/04/28 11:53:09;;;;;;;3.83;3.28;;;18.40;40.30;;;;;;5055588;28;20033;-81
2022/04/28 11:55:38;;;;;;;4.20;3.65;;;17.90;41.60;;;;;;5051325;28;20025;-81
2022/04/28 11:58:08;;;;;;;4.47;3.40;;;18.10;40.90;;;;;;5048280;28;20065;-79
2022/04/28 12:00:38;;;;;;;4.97;2.97;;;18.20;41.10;;;;;;5050155;28;19998;-84
2022/04/28 12:03:04;;;;;;;5.78;3.03;;;18.30;41.10;;;;;;5052756;28;20037;-82
2022/04/28 12:05:32;;;;;;;4.35;3.80;;;18.40;40.70;;;;;;5045090;28;20455;-82
2022/04/28 12:07:58;;;;;;;3.13;2.90;;;18.70;40.00;;;;;;5044394;28;20093;-84
2022/04/28 12:16:14;;;;;;;6.18;3.58;;;19.30;40.10;;;;;;5044429;28;20035;-84
2022/04/28 12:21:32;;;;;;;4.85;3.00;;;19.10;39.80;;;;;;5044769;28;20072;-83
2022/04/28 12:24:00;;;;;;;3.63;3.25;;;19.00;39.70;;;;;;5046316;28;20028;-84
2022/04/28 12:26:32;;;;;;;2.97;2.38;;;19.10;39.70;;;;;;5046285;28;20025;-85
2022/04/28 12:29:08;;;;;;;3.83;2.97;;;19.10;39.90;;;;;;5046605;28;20056;-85
2022/04/28 12:31:34;;;;;;;6.30;3.70;;;19.20;39.50;;;;;;5047587;28;20037;-85
2022/04/28 12:34:13;;;;;;;3.85;2.72;;;19.20;39.40;;;;;;5047329;28;20431;-86
2022/04/28 12:36:57;;;;;;;3.67;2.85;;;19.40;39.60;;;;;;5043321;28;20032;-84
2022/04/28 12:39:26;;;;;;;3.35;2.55;;;19.70;38.30;;;;;;5045074;28;20022;-84
2022/04/28 12:41:52;;;;;;;3.22;2.70;;;19.50;38.40;;;;;;5043874;28;20037;-85
2022/04/28 12:44:20;;;;;;;5.18;3.25;;;19.30;38.40;;;;;;5047471;28;20040;-85
2022/04/28 12:46:46;;;;;;;3.35;2.80;;;19.20;39.40;;;;;;5045312;28;20022;-83
2022/04/28 12:49:16;;;;;;;4.80;3.53;;;19.30;39.50;;;;;;5042821;28;20033;-86
2022/04/28 12:51:47;;;;;;;5.65;3.80;;;19.50;39.40;;;;;;5043532;28;20512;-84
2022/04/28 12:54:17;;;;;;;5.43;3.15;;;19.40;38.70;;;;;;5050090;28;20033;-85
2022/04/28 12:56:46;;;;;;;4.70;2.97;;;19.30;39.10;;;;;;5046744;28;20037;-84
2022/04/28 12:59:17;;;;;;;5.95;3.40;;;19.20;39.10;;;;;;5042084;28;20052;-84
2022/04/28 13:01:46;;;;;;;4.35;3.00;;;19.10;39.00;;;;;;5040975;28;20349;-85
2022/04/28 13:04:19;;;;;;;8.00;3.35;;;19.40;39.90;;;;;;5039895;28;20377;-84
2022/04/28 13:06:46;;;;;;;4.45;3.05;;;19.70;38.50;;;;;;5039164;28;20060;-83
2022/04/28 13:09:42;;;;;;;4.30;3.33;;;19.90;38.30;;;;;;5037773;28;20064;-83
2022/04/28 13:12:29;;;;;;;9.13;4.00;;;20.00;37.90;;;;;;5038831;28;20045;-84
2022/04/28 13:14:56;;;;;;;4.38;3.05;;;20.10;37.50;;;;;;5039908;28;20036;-86
2022/04/28 13:17:22;;;;;;;4.35;3.95;;;19.90;37.00;;;;;;5042676;28;20021;-84
2022/04/28 13:19:48;;;;;;;6.93;3.13;;;19.60;37.90;;;;;;5045397;28;20385;-85
2022/04/28 13:22:14;;;;;;;4.63;3.95;;;19.50;38.70;;;;;;5046985;28;20029;-86
2022/04/28 13:24:40;;;;;;;5.13;3.30;;;19.30;38.30;;;;;;5044046;28;20060;-86
2022/04/28 13:27:05;;;;;;;3.33;2.50;;;19.00;39.20;;;;;;5045954;28;20037;-84
2022/04/28 13:29:31;;;;;;;3.17;2.78;;;19.30;39.60;;;;;;5046038;28;20085;-83
2022/04/28 13:31:58;;;;;;;3.13;2.80;;;19.60;39.20;;;;;;5048932;28;20025;-85
2022/04/28 13:34:24;;;;;;;5.50;3.50;;;19.70;38.50;;;;;;5053108;28;20021;-86
2022/04/28 13:36:51;;;;;;;3.90;3.50;;;19.60;38.60;;;;;;5055134;28;20025;-86
2022/04/28 13:39:18;;;;;;;2.47;2.25;;;19.40;38.90;;;;;;5054657;28;20025;-86